createdAt,value
2022-10-09T00:02:52.717Z,91.15
2022-10-09T00:18:34.916Z,91.2
2022-10-09T00:34:17.260Z,90.63
2022-10-09T00:49:59.619Z,89.37
2022-10-09T01:05:42.496Z,90.44
2022-10-09T01:21:24.593Z,91.28
2022-10-09T01:37:07.451Z,92.27
2022-10-09T01:52:49.575Z,93.12
2022-10-09T02:08:32.063Z,94.57
2022-10-09T02:24:14.888Z,94.22
2022-10-09T02:39:57.773Z,93.82
2022-10-09T02:55:40.326Z,94.63
2022-10-09T03:11:22.936Z,93.84
2022-10-09T03:27:05.544Z,92.96
2022-10-09T03:42:48.387Z,93.15
2022-10-09T03:58:31.277Z,93.64
2022-10-09T04:14:13.868Z,93.62
2022-10-09T04:29:56.928Z,92.82
2022-10-09T04:45:39.844Z,91.85
2022-10-09T05:01:22.294Z,91.87
2022-10-09T05:17:04.636Z,92.16
2022-10-09T05:32:47.596Z,91.88
2022-10-09T05:48:30.432Z,91.88
2022-10-09T06:04:13.093Z,92.1
2022-10-09T06:19:55.771Z,93.63
2022-10-09T06:35:38.358Z,94.19
2022-10-09T06:51:21.321Z,95.61
2022-10-09T07:07:04.261Z,96.68
2022-10-09T07:22:46.755Z,96.93
2022-10-09T07:38:28.944Z,96.62
2022-10-09T07:54:11.194Z,96.01
2022-10-09T08:09:53.950Z,100
2022-10-09T08:25:36.363Z,83.7
2022-10-09T08:41:19.142Z,70.47
2022-10-09T08:57:01.957Z,59.8
2022-10-09T09:12:44.931Z,54.85
2022-10-09T09:28:27.414Z,56.19
2022-10-09T09:44:09.652Z,56.81
2022-10-09T09:59:52.018Z,49.36
2022-10-09T10:15:34.246Z,44.25
2022-10-09T10:31:16.620Z,45.23
2022-10-09T10:46:59.181Z,47.82
2022-10-09T11:02:42.039Z,49.8
2022-10-09T11:18:24.809Z,51.63
2022-10-09T11:34:07.782Z,51.44
2022-10-09T11:49:50.473Z,43.77
2022-10-09T11:50:37.686Z,42.64
2022-10-09T12:06:20.361Z,35.28
2022-10-09T12:22:02.536Z,33.39
2022-10-09T12:37:44.909Z,33.84
2022-10-09T12:53:27.580Z,27.75
2022-10-09T13:09:09.578Z,25.91
2022-10-09T13:24:51.628Z,25.07
2022-10-09T13:40:34.403Z,24.16
2022-10-09T13:56:17.074Z,25.06
2022-10-09T14:11:59.061Z,24.67
2022-10-09T14:27:41.026Z,24
2022-10-09T14:43:23.255Z,25.1
2022-10-09T14:59:05.416Z,32.5
2022-10-09T15:14:48.169Z,39.6
2022-10-09T15:30:31.055Z,44.38
2022-10-09T15:46:13.302Z,49.12
2022-10-09T16:01:56.000Z,52.77
2022-10-09T16:17:38.841Z,56.47
2022-10-09T16:33:21.483Z,60.18
2022-10-09T16:49:03.966Z,62.43
2022-10-09T17:04:46.086Z,64.39
2022-10-09T17:20:28.943Z,66.45
2022-10-09T17:36:11.256Z,68.1
2022-10-09T17:51:53.666Z,69.69
2022-10-09T18:07:36.168Z,72.22
2022-10-09T18:23:19.065Z,74.71
2022-10-09T18:39:01.314Z,74.53
2022-10-09T18:54:43.670Z,76.2
2022-10-09T19:10:26.343Z,76.74
2022-10-09T19:26:08.872Z,77.6
2022-10-09T19:41:51.815Z,79.63
2022-10-09T19:57:34.071Z,80.29
2022-10-09T20:13:17.057Z,81.39
2022-10-09T20:28:59.845Z,81.75
2022-10-09T20:44:42.074Z,81.44
2022-10-09T21:00:24.799Z,81.95
2022-10-09T21:16:07.054Z,82.02
2022-10-09T21:31:49.868Z,83.78
2022-10-09T21:47:32.427Z,83.86
2022-10-09T22:03:15.368Z,85.12
2022-10-09T22:18:57.723Z,84.39
2022-10-09T22:34:40.747Z,84.45
2022-10-09T22:50:23.511Z,86.24
2022-10-09T23:06:05.825Z,86.12
2022-10-09T23:21:48.124Z,86.49
2022-10-09T23:37:30.249Z,86.42
2022-10-09T23:53:12.668Z,86.78
